sensor_id;sensor_type;location;lat;lon;timestamp;temperature;humidity
4356;DHT22;2191;51.482;7.408;2022-07-23T00:00:56;23.00;99.90
4356;DHT22;2191;51.482;7.408;2022-07-23T00:03:24;23.00;99.90
4356;DHT22;2191;51.482;7.408;2022-07-23T00:05:54;23.00;99.90
4356;DHT22;2191;51.482;7.408;2022-07-23T00:08:25;23.00;99.90
4356;DHT22;2191;51.482;7.408;2022-07-23T00:10:56;23.00;99.90
4356;DHT22;2191;51.482;7.408;2022-07-23T00:13:29;23.00;99.90
4356;DHT22;2191;51.482;7.408;2022-07-23T00:16:00;23.00;99.90
4356;DHT22;2191;51.482;7.408;2022-07-23T00:18:28;23.00;99.90
4356;DHT22;2191;51.482;7.408;2022-07-23T00:21:00;22.90;99.90
4356;DHT22;2191;51.482;7.408;2022-07-23T00:23:30;22.90;99.90
4356;DHT22;2191;51.482;7.408;2022-07-23T00:26:01;22.90;99.90
4356;DHT22;2191;51.482;7.408;2022-07-23T00:28:29;22.80;99.90
4356;DHT22;2191;51.482;7.408;2022-07-23T00:30:57;22.80;99.90
4356;DHT22;2191;51.482;7.408;2022-07-23T00:33:30;22.90;99.90
4356;DHT22;2191;51.482;7.408;2022-07-23T00:36:02;22.90;99.90
4356;DHT22;2191;51.482;7.408;2022-07-23T00:38:30;22.90;99.90
4356;DHT22;2191;51.482;7.408;2022-07-23T00:41:09;22.90;99.90
4356;DHT22;2191;51.482;7.408;2022-07-23T00:43:40;22.90;99.90
4356;DHT22;2191;51.482;7.408;2022-07-23T00:46:11;22.90;99.90
4356;DHT22;2191;51.482;7.408;2022-07-23T00:48:39;22.90;99.90
4356;DHT22;2191;51.482;7.408;2022-07-23T00:51:08;22.90;99.90
4356;DHT22;2191;51.482;7.408;2022-07-23T00:53:38;22.90;99.90
4356;DHT22;2191;51.482;7.408;2022-07-23T00:56:13;22.90;99.90
4356;DHT22;2191;51.482;7.408;2022-07-23T00:58:46;22.90;99.90
4356;DHT22;2191;51.482;7.408;2022-07-23T01:01:22;22.90;99.90
4356;DHT22;2191;51.482;7.408;2022-07-23T01:03:53;22.90;99.90
4356;DHT22;2191;51.482;7.408;2022-07-23T01:06:25;22.90;99.90
4356;DHT22;2191;51.482;7.408;2022-07-23T01:08:53;22.90;99.90
4356;DHT22;2191;51.482;7.408;2022-07-23T01:11:24;22.90;99.90
4356;DHT22;2191;51.482;7.408;2022-07-23T01:13:55;22.90;99.90
4356;DHT22;2191;51.482;7.408;2022-07-23T01:16:25;22.90;99.90
4356;DHT22;2191;51.482;7.408;2022-07-23T01:18:53;22.90;99.90
4356;DHT22;2191;51.482;7.408;2022-07-23T01:21:22;22.90;99.90
4356;DHT22;2191;51.482;7.408;2022-07-23T01:23:55;22.80;99.90
4356;DHT22;2191;51.482;7.408;2022-07-23T01:26:23;22.90;99.90
4356;DHT22;2191;51.482;7.408;2022-07-23T01:28:54;22.80;99.90
4356;DHT22;2191;51.482;7.408;2022-07-23T01:31:22;22.80;99.90
4356;DHT22;2191;51.482;7.408;2022-07-23T01:33:57;22.80;99.90
4356;DHT22;2191;51.482;7.408;2022-07-23T01:36:26;22.80;99.90
4356;DHT22;2191;51.482;7.408;2022-07-23T01:39:13;22.80;99.90
4356;DHT22;2191;51.482;7.408;2022-07-23T01:41:49;22.80;99.90
4356;DHT22;2191;51.482;7.408;2022-07-23T01:44:17;22.80;99.90
4356;DHT22;2191;51.482;7.408;2022-07-23T01:46:48;22.80;99.90
4356;DHT22;2191;51.482;7.408;2022-07-23T01:49:23;22.80;99.90
4356;DHT22;2191;51.482;7.408;2022-07-23T01:51:51;22.80;99.90
4356;DHT22;2191;51.482;7.408;2022-07-23T01:54:43;22.80;99.90
4356;DHT22;2191;51.482;7.408;2022-07-23T01:57:11;22.80;99.90
4356;DHT22;2191;51.482;7.408;2022-07-23T01:59:39;22.70;99.90
4356;DHT22;2191;51.482;7.408;2022-07-23T02:02:09;22.70;99.90
4356;DHT22;2191;51.482;7.408;2022-07-23T02:04:39;22.70;99.90
4356;DHT22;2191;51.482;7.408;2022-07-23T02:07:07;22.70;99.90
4356;DHT22;2191;51.482;7.408;2022-07-23T02:09:37;22.70;99.90
4356;DHT22;2191;51.482;7.408;2022-07-23T02:12:11;22.70;99.90
4356;DHT22;2191;51.482;7.408;2022-07-23T02:14:41;22.80;99.90
4356;DHT22;2191;51.482;7.408;2022-07-23T02:17:09;22.80;99.90
4356;DHT22;2191;51.482;7.408;2022-07-23T02:19:37;22.70;99.90
4356;DHT22;2191;51.482;7.408;2022-07-23T02:22:07;22.70;99.90
4356;DHT22;2191;51.482;7.408;2022-07-23T02:24:36;22.70;99.90
4356;DHT22;2191;51.482;7.408;2022-07-23T02:27:04;22.70;99.90
4356;DHT22;2191;51.482;7.408;2022-07-23T02:29:39;22.70;99.90
4356;DHT22;2191;51.482;7.408;2022-07-23T02:32:07;22.80;99.90
4356;DHT22;2191;51.482;7.408;2022-07-23T02:34:38;22.60;99.90
4356;DHT22;2191;51.482;7.408;2022-07-23T02:37:09;22.60;99.90
4356;DHT22;2191;51.482;7.408;2022-07-23T02:39:40;22.60;99.90
4356;DHT22;2191;51.482;7.408;2022-07-23T02:42:08;22.60;99.90
4356;DHT22;2191;51.482;7.408;2022-07-23T02:44:36;22.60;99.90
4356;DHT22;2191;51.482;7.408;2022-07-23T02:47:04;22.60;99.90
4356;DHT22;2191;51.482;7.408;2022-07-23T02:49:33;22.60;99.90
4356;DHT22;2191;51.482;7.408;2022-07-23T02:52:03;22.60;99.90
4356;DHT22;2191;51.482;7.408;2022-07-23T02:54:42;22.60;99.90
4356;DHT22;2191;51.482;7.408;2022-07-23T02:57:10;22.50;99.90
4356;DHT22;2191;51.482;7.408;2022-07-23T02:59:43;22.50;99.90
4356;DHT22;2191;51.482;7.408;2022-07-23T03:02:18;22.50;99.90
4356;DHT22;2191;51.482;7.408;2022-07-23T03:04:46;22.40;99.90
4356;DHT22;2191;51.482;7.408;2022-07-23T03:07:14;22.40;99.90
4356;DHT22;2191;51.482;7.408;2022-07-23T03:09:43;22.40;99.90
4356;DHT22;2191;51.482;7.408;2022-07-23T03:12:14;22.40;99.90
4356;DHT22;2191;51.482;7.408;2022-07-23T03:14:44;22.40;99.90
4356;DHT22;2191;51.482;7.408;2022-07-23T03:17:14;22.40;99.90
4356;DHT22;2191;51.482;7.408;2022-07-23T03:19:45;22.30;99.90
4356;DHT22;2191;51.482;7.408;2022-07-23T03:22:15;22.40;99.90
4356;DHT22;2191;51.482;7.408;2022-07-23T03:24:47;22.30;99.90
4356;DHT22;2191;51.482;7.408;2022-07-23T03:27:28;22.20;99.90
4356;DHT22;2191;51.482;7.408;2022-07-23T03:29:59;22.10;99.90
4356;DHT22;2191;51.482;7.408;2022-07-23T03:32:30;22.00;99.90
4356;DHT22;2191;51.482;7.408;2022-07-23T03:34:58;22.10;99.90
4356;DHT22;2191;51.482;7.408;2022-07-23T03:37:29;22.20;99.90
4356;DHT22;2191;51.482;7.408;2022-07-23T03:40:00;22.20;99.90
4356;DHT22;2191;51.482;7.408;2022-07-23T03:42:28;22.10;99.90
4356;DHT22;2191;51.482;7.408;2022-07-23T03:44:59;22.10;99.90
4356;DHT22;2191;51.482;7.408;2022-07-23T03:47:28;22.10;99.90
4356;DHT22;2191;51.482;7.408;2022-07-23T03:49:56;22.10;99.90
4356;DHT22;2191;51.482;7.408;2022-07-23T03:52:23;22.00;99.90
4356;DHT22;2191;51.482;7.408;2022-07-23T03:54:51;22.00;99.90
4356;DHT22;2191;51.482;7.408;2022-07-23T03:57:24;22.00;99.90
4356;DHT22;2191;51.482;7.408;2022-07-23T03:59:55;22.00;99.90
4356;DHT22;2191;51.482;7.408;2022-07-23T04:02:23;22.00;99.90
4356;DHT22;2191;51.482;7.408;2022-07-23T04:04:53;22.00;99.90
4356;DHT22;2191;51.482;7.408;2022-07-23T04:07:26;22.00;99.90
4356;DHT22;2191;51.482;7.408;2022-07-23T04:09:54;21.90;99.90
4356;DHT22;2191;51.482;7.408;2022-07-23T04:12:29;21.90;99.90
4356;DHT22;2191;51.482;7.408;2022-07-23T04:14:56;21.90;99.90
4356;DHT22;2191;51.482;7.408;2022-07-23T04:17:24;21.90;99.90
4356;DHT22;2191;51.482;7.408;2022-07-23T04:19:55;21.90;99.90
4356;DHT22;2191;51.482;7.408;2022-07-23T04:22:23;21.90;99.90
4356;DHT22;2191;51.482;7.408;2022-07-23T04:24:53;21.80;99.90
4356;DHT22;2191;51.482;7.408;2022-07-23T04:27:21;21.80;99.90
4356;DHT22;2191;51.482;7.408;2022-07-23T04:30:03;21.90;99.90
4356;DHT22;2191;51.482;7.408;2022-07-23T04:32:33;21.90;99.90
4356;DHT22;2191;51.482;7.408;2022-07-23T04:35:01;21.80;99.90
4356;DHT22;2191;51.482;7.408;2022-07-23T04:37:29;21.80;99.90
4356;DHT22;2191;51.482;7.408;2022-07-23T04:39:57;21.80;99.90
4356;DHT22;2191;51.482;7.408;2022-07-23T04:42:25;21.90;99.90
4356;DHT22;2191;51.482;7.408;2022-07-23T04:44:56;21.90;99.90
4356;DHT22;2191;51.482;7.408;2022-07-23T04:47:25;21.90;99.90
4356;DHT22;2191;51.482;7.408;2022-07-23T04:49:56;21.80;99.90
4356;DHT22;2191;51.482;7.408;2022-07-23T04:52:24;21.90;99.90
4356;DHT22;2191;51.482;7.408;2022-07-23T04:54:52;21.80;99.90
4356;DHT22;2191;51.482;7.408;2022-07-23T04:57:20;21.90;99.90
4356;DHT22;2191;51.482;7.408;2022-07-23T04:59:48;21.90;99.90
4356;DHT22;2191;51.482;7.408;2022-07-23T05:02:18;22.00;99.90
4356;DHT22;2191;51.482;7.408;2022-07-23T05:04:47;22.00;99.90
4356;DHT22;2191;51.482;7.408;2022-07-23T05:07:18;22.00;99.90
4356;DHT22;2191;51.482;7.408;2022-07-23T05:09:46;21.90;99.90
4356;DHT22;2191;51.482;7.408;2022-07-23T05:12:14;21.80;99.90
4356;DHT22;2191;51.482;7.408;2022-07-23T05:14:42;21.80;99.90
4356;DHT22;2191;51.482;7.408;2022-07-23T05:17:12;21.80;99.90
4356;DHT22;2191;51.482;7.408;2022-07-23T05:19:43;21.80;99.90
4356;DHT22;2191;51.482;7.408;2022-07-23T05:22:14;21.90;99.90
4356;DHT22;2191;51.482;7.408;2022-07-23T05:24:44;21.90;99.90
4356;DHT22;2191;51.482;7.408;2022-07-23T05:27:15;21.90;99.90
4356;DHT22;2191;51.482;7.408;2022-07-23T05:29:42;22.00;99.90
4356;DHT22;2191;51.482;7.408;2022-07-23T05:32:18;22.00;99.90
4356;DHT22;2191;51.482;7.408;2022-07-23T05:34:46;22.00;99.90
4356;DHT22;2191;51.482;7.408;2022-07-23T05:37:15;22.00;99.90
4356;DHT22;2191;51.482;7.408;2022-07-23T05:39:43;21.90;99.90
4356;DHT22;2191;51.482;7.408;2022-07-23T05:42:14;21.90;99.90
4356;DHT22;2191;51.482;7.408;2022-07-23T05:44:42;21.90;99.90
4356;DHT22;2191;51.482;7.408;2022-07-23T05:47:15;21.80;99.90
4356;DHT22;2191;51.482;7.408;2022-07-23T05:49:53;21.90;99.90
4356;DHT22;2191;51.482;7.408;2022-07-23T05:52:31;21.90;99.90
4356;DHT22;2191;51.482;7.408;2022-07-23T05:55:01;22.30;99.90
4356;DHT22;2191;51.482;7.408;2022-07-23T05:57:32;22.00;99.90
4356;DHT22;2191;51.482;7.408;2022-07-23T06:00:00;22.10;99.90
4356;DHT22;2191;51.482;7.408;2022-07-23T06:02:42;22.20;99.90
4356;DHT22;2191;51.482;7.408;2022-07-23T06:05:17;22.20;99.90
4356;DHT22;2191;51.482;7.408;2022-07-23T06:07:51;22.10;99.90
4356;DHT22;2191;51.482;7.408;2022-07-23T06:10:19;22.10;99.90
4356;DHT22;2191;51.482;7.408;2022-07-23T06:12:47;22.10;99.90
4356;DHT22;2191;51.482;7.408;2022-07-23T06:15:15;22.10;99.90
4356;DHT22;2191;51.482;7.408;2022-07-23T06:17:43;22.20;99.90
4356;DHT22;2191;51.482;7.408;2022-07-23T06:20:14;22.20;99.90
4356;DHT22;2191;51.482;7.408;2022-07-23T06:22:45;22.30;99.90
4356;DHT22;2191;51.482;7.408;2022-07-23T06:25:15;22.30;99.90
4356;DHT22;2191;51.482;7.408;2022-07-23T06:27:45;22.20;99.90
4356;DHT22;2191;51.482;7.408;2022-07-23T06:30:16;22.20;99.90
4356;DHT22;2191;51.482;7.408;2022-07-23T06:32:54;22.30;99.90
4356;DHT22;2191;51.482;7.408;2022-07-23T06:35:27;22.30;99.90
4356;DHT22;2191;51.482;7.408;2022-07-23T06:37:55;22.20;99.90
4356;DHT22;2191;51.482;7.408;2022-07-23T06:40:27;22.30;99.90
4356;DHT22;2191;51.482;7.408;2022-07-23T06:43:04;22.30;99.90
4356;DHT22;2191;51.482;7.408;2022-07-23T06:45:32;22.30;99.90
4356;DHT22;2191;51.482;7.408;2022-07-23T06:48:00;22.30;99.90
4356;DHT22;2191;51.482;7.408;2022-07-23T06:50:28;22.20;99.90
4356;DHT22;2191;51.482;7.408;2022-07-23T06:52:59;22.20;99.90
4356;DHT22;2191;51.482;7.408;2022-07-23T06:55:31;22.20;99.90
4356;DHT22;2191;51.482;7.408;2022-07-23T06:58:05;22.30;99.90
4356;DHT22;2191;51.482;7.408;2022-07-23T07:00:46;22.30;99.90
4356;DHT22;2191;51.482;7.408;2022-07-23T07:03:19;22.30;99.90
4356;DHT22;2191;51.482;7.408;2022-07-23T07:05:47;22.50;99.90
4356;DHT22;2191;51.482;7.408;2022-07-23T07:08:16;22.60;99.90
4356;DHT22;2191;51.482;7.408;2022-07-23T07:10:47;22.60;99.90
4356;DHT22;2191;51.482;7.408;2022-07-23T07:13:16;22.70;99.90
4356;DHT22;2191;51.482;7.408;2022-07-23T07:15:44;22.70;99.90
4356;DHT22;2191;51.482;7.408;2022-07-23T07:18:15;22.80;99.90
4356;DHT22;2191;51.482;7.408;2022-07-23T07:20:58;22.80;99.90
4356;DHT22;2191;51.482;7.408;2022-07-23T07:23:26;22.90;99.90
4356;DHT22;2191;51.482;7.408;2022-07-23T07:25:55;22.90;99.90
4356;DHT22;2191;51.482;7.408;2022-07-23T07:28:26;23.00;99.90
4356;DHT22;2191;51.482;7.408;2022-07-23T07:30:54;22.90;99.90
4356;DHT22;2191;51.482;7.408;2022-07-23T07:33:22;23.00;99.90
4356;DHT22;2191;51.482;7.408;2022-07-23T07:35:50;23.00;99.90
4356;DHT22;2191;51.482;7.408;2022-07-23T07:38:18;23.00;99.90
4356;DHT22;2191;51.482;7.408;2022-07-23T07:40:48;23.00;99.90
4356;DHT22;2191;51.482;7.408;2022-07-23T07:43:17;23.10;99.90
4356;DHT22;2191;51.482;7.408;2022-07-23T07:45:46;23.20;99.90
4356;DHT22;2191;51.482;7.408;2022-07-23T07:48:14;23.30;99.90
4356;DHT22;2191;51.482;7.408;2022-07-23T07:50:42;23.30;99.90
4356;DHT22;2191;51.482;7.408;2022-07-23T07:53:18;23.30;99.90
4356;DHT22;2191;51.482;7.408;2022-07-23T07:55:46;23.40;99.90
4356;DHT22;2191;51.482;7.408;2022-07-23T07:58:18;23.50;99.90
4356;DHT22;2191;51.482;7.408;2022-07-23T08:00:46;23.10;99.90
4356;DHT22;2191;51.482;7.408;2022-07-23T08:03:16;23.10;99.90
4356;DHT22;2191;51.482;7.408;2022-07-23T08:05:44;23.10;99.90
4356;DHT22;2191;51.482;7.408;2022-07-23T08:08:20;23.10;99.90
4356;DHT22;2191;51.482;7.408;2022-07-23T08:10:51;23.20;99.90
4356;DHT22;2191;51.482;7.408;2022-07-23T08:13:20;23.10;99.90
4356;DHT22;2191;51.482;7.408;2022-07-23T08:15:48;23.10;99.90
4356;DHT22;2191;51.482;7.408;2022-07-23T08:18:22;23.20;99.90
4356;DHT22;2191;51.482;7.408;2022-07-23T08:20:53;23.60;99.90
4356;DHT22;2191;51.482;7.408;2022-07-23T08:23:21;23.40;99.90
4356;DHT22;2191;51.482;7.408;2022-07-23T08:25:55;23.30;99.90
4356;DHT22;2191;51.482;7.408;2022-07-23T08:28:27;23.20;99.90
4356;DHT22;2191;51.482;7.408;2022-07-23T08:30:55;22.70;99.90
4356;DHT22;2191;51.482;7.408;2022-07-23T08:33:26;22.70;99.90
4356;DHT22;2191;51.482;7.408;2022-07-23T08:36:01;22.40;99.90
4356;DHT22;2191;51.482;7.408;2022-07-23T08:38:32;22.50;99.90
4356;DHT22;2191;51.482;7.408;2022-07-23T08:41:04;22.70;99.90
4356;DHT22;2191;51.482;7.408;2022-07-23T08:43:34;22.60;99.90
4356;DHT22;2191;51.482;7.408;2022-07-23T08:46:05;22.60;99.90
4356;DHT22;2191;51.482;7.408;2022-07-23T08:48:36;22.50;99.90
4356;DHT22;2191;51.482;7.408;2022-07-23T08:51:06;22.40;99.90
4356;DHT22;2191;51.482;7.408;2022-07-23T08:53:37;22.50;99.90
4356;DHT22;2191;51.482;7.408;2022-07-23T08:56:09;22.40;99.90
4356;DHT22;2191;51.482;7.408;2022-07-23T08:58:43;22.70;99.90
4356;DHT22;2191;51.482;7.408;2022-07-23T09:01:11;22.90;99.90
4356;DHT22;2191;51.482;7.408;2022-07-23T09:03:39;22.80;99.90
4356;DHT22;2191;51.482;7.408;2022-07-23T09:06:07;22.90;99.90
4356;DHT22;2191;51.482;7.408;2022-07-23T09:08:38;23.10;99.90
4356;DHT22;2191;51.482;7.408;2022-07-23T09:11:08;23.20;99.90
4356;DHT22;2191;51.482;7.408;2022-07-23T09:13:38;22.90;99.90
4356;DHT22;2191;51.482;7.408;2022-07-23T09:16:16;22.90;99.90
4356;DHT22;2191;51.482;7.408;2022-07-23T09:18:53;23.00;99.90
4356;DHT22;2191;51.482;7.408;2022-07-23T09:21:24;23.20;99.90
4356;DHT22;2191;51.482;7.408;2022-07-23T09:24:10;23.30;99.90
4356;DHT22;2191;51.482;7.408;2022-07-23T09:26:41;23.20;99.90
4356;DHT22;2191;51.482;7.408;2022-07-23T09:29:12;23.30;99.90
4356;DHT22;2191;51.482;7.408;2022-07-23T09:31:50;23.50;99.90
4356;DHT22;2191;51.482;7.408;2022-07-23T09:34:23;22.90;99.90
4356;DHT22;2191;51.482;7.408;2022-07-23T09:36:56;23.10;99.90
4356;DHT22;2191;51.482;7.408;2022-07-23T09:39:37;23.30;99.90
4356;DHT22;2191;51.482;7.408;2022-07-23T09:42:14;23.50;99.90
4356;DHT22;2191;51.482;7.408;2022-07-23T09:44:46;23.60;99.90
4356;DHT22;2191;51.482;7.408;2022-07-23T09:47:16;23.40;99.90
4356;DHT22;2191;51.482;7.408;2022-07-23T09:49:58;23.30;99.90
4356;DHT22;2191;51.482;7.408;2022-07-23T09:52:28;23.30;99.90
4356;DHT22;2191;51.482;7.408;2022-07-23T09:55:04;23.30;99.90
4356;DHT22;2191;51.482;7.408;2022-07-23T09:57:32;23.30;99.90
4356;DHT22;2191;51.482;7.408;2022-07-23T10:00:05;23.40;99.90
4356;DHT22;2191;51.482;7.408;2022-07-23T10:02:39;23.60;99.90
4356;DHT22;2191;51.482;7.408;2022-07-23T10:05:10;23.80;99.90
4356;DHT22;2191;51.482;7.408;2022-07-23T10:07:40;24.00;99.90
4356;DHT22;2191;51.482;7.408;2022-07-23T10:10:18;23.90;99.90
4356;DHT22;2191;51.482;7.408;2022-07-23T10:12:53;24.40;99.90
4356;DHT22;2191;51.482;7.408;2022-07-23T10:15:47;24.20;99.90
4356;DHT22;2191;51.482;7.408;2022-07-23T10:18:19;24.30;99.90
4356;DHT22;2191;51.482;7.408;2022-07-23T10:20:51;24.20;99.90
4356;DHT22;2191;51.482;7.408;2022-07-23T10:23:22;24.40;99.90
4356;DHT22;2191;51.482;7.408;2022-07-23T10:25:57;24.20;99.90
4356;DHT22;2191;51.482;7.408;2022-07-23T10:28:44;24.30;99.90
4356;DHT22;2191;51.482;7.408;2022-07-23T10:31:25;24.20;99.90
4356;DHT22;2191;51.482;7.408;2022-07-23T10:34:21;24.30;99.90
4356;DHT22;2191;51.482;7.408;2022-07-23T10:37:07;24.40;99.90
4356;DHT22;2191;51.482;7.408;2022-07-23T10:39:35;24.70;99.90
4356;DHT22;2191;51.482;7.408;2022-07-23T10:42:10;24.60;99.90
4356;DHT22;2191;51.482;7.408;2022-07-23T10:44:45;24.40;99.90
4356;DHT22;2191;51.482;7.408;2022-07-23T10:47:25;24.40;99.90
4356;DHT22;2191;51.482;7.408;2022-07-23T10:50:27;24.70;99.90
4356;DHT22;2191;51.482;7.408;2022-07-23T10:53:11;24.80;99.90
4356;DHT22;2191;51.482;7.408;2022-07-23T10:55:43;24.90;99.90
4356;DHT22;2191;51.482;7.408;2022-07-23T10:58:45;25.00;99.90
4356;DHT22;2191;51.482;7.408;2022-07-23T11:01:33;25.00;99.90
4356;DHT22;2191;51.482;7.408;2022-07-23T11:04:03;25.10;99.90
4356;DHT22;2191;51.482;7.408;2022-07-23T11:07:07;25.10;99.90
4356;DHT22;2191;51.482;7.408;2022-07-23T11:09:44;25.20;99.90
4356;DHT22;2191;51.482;7.408;2022-07-23T11:12:34;25.30;99.90
4356;DHT22;2191;51.482;7.408;2022-07-23T11:15:08;25.10;99.90
4356;DHT22;2191;51.482;7.408;2022-07-23T11:17:59;25.10;99.90
4356;DHT22;2191;51.482;7.408;2022-07-23T11:20:27;25.00;99.90
4356;DHT22;2191;51.482;7.408;2022-07-23T11:22:59;24.80;99.90
4356;DHT22;2191;51.482;7.408;2022-07-23T11:25:32;24.90;99.90
4356;DHT22;2191;51.482;7.408;2022-07-23T11:28:10;25.10;99.90
4356;DHT22;2191;51.482;7.408;2022-07-23T11:30:42;25.30;99.90
4356;DHT22;2191;51.482;7.408;2022-07-23T11:33:24;25.40;99.90
4356;DHT22;2191;51.482;7.408;2022-07-23T11:36:03;25.60;99.90
4356;DHT22;2191;51.482;7.408;2022-07-23T11:38:36;25.80;99.90
4356;DHT22;2191;51.482;7.408;2022-07-23T11:41:22;25.70;99.90
4356;DHT22;2191;51.482;7.408;2022-07-23T11:43:50;25.70;99.90
4356;DHT22;2191;51.482;7.408;2022-07-23T11:46:18;25.50;99.90
4356;DHT22;2191;51.482;7.408;2022-07-23T11:49:02;25.80;99.90
4356;DHT22;2191;51.482;7.408;2022-07-23T11:51:33;25.70;99.90
4356;DHT22;2191;51.482;7.408;2022-07-23T11:54:16;25.90;99.90
4356;DHT22;2191;51.482;7.408;2022-07-23T11:56:55;26.00;99.90
4356;DHT22;2191;51.482;7.408;2022-07-23T11:59:33;26.10;99.90
4356;DHT22;2191;51.482;7.408;2022-07-23T12:02:03;26.10;99.90
4356;DHT22;2191;51.482;7.408;2022-07-23T12:04:38;25.80;99.90
4356;DHT22;2191;51.482;7.408;2022-07-23T12:07:32;25.90;99.90
4356;DHT22;2191;51.482;7.408;2022-07-23T12:10:04;26.10;99.90
4356;DHT22;2191;51.482;7.408;2022-07-23T12:12:36;26.10;99.90
4356;DHT22;2191;51.482;7.408;2022-07-23T12:15:06;26.00;99.90
4356;DHT22;2191;51.482;7.408;2022-07-23T12:17:37;26.20;99.90
4356;DHT22;2191;51.482;7.408;2022-07-23T12:20:11;26.50;99.90
4356;DHT22;2191;51.482;7.408;2022-07-23T12:22:41;26.60;99.90
4356;DHT22;2191;51.482;7.408;2022-07-23T12:25:12;26.60;99.90
4356;DHT22;2191;51.482;7.408;2022-07-23T12:27:44;26.70;99.90
4356;DHT22;2191;51.482;7.408;2022-07-23T12:30:21;26.80;99.90
4356;DHT22;2191;51.482;7.408;2022-07-23T12:32:51;26.90;99.90
4356;DHT22;2191;51.482;7.408;2022-07-23T12:35:19;26.90;99.90
4356;DHT22;2191;51.482;7.408;2022-07-23T12:37:51;26.50;99.90
4356;DHT22;2191;51.482;7.408;2022-07-23T12:40:25;26.30;99.90
4356;DHT22;2191;51.482;7.408;2022-07-23T12:42:55;26.50;99.90
4356;DHT22;2191;51.482;7.408;2022-07-23T12:45:24;26.70;99.90
4356;DHT22;2191;51.482;7.408;2022-07-23T12:48:04;26.80;99.90
4356;DHT22;2191;51.482;7.408;2022-07-23T12:50:42;26.90;99.90
4356;DHT22;2191;51.482;7.408;2022-07-23T12:53:12;26.90;99.90
4356;DHT22;2191;51.482;7.408;2022-07-23T12:55:59;26.60;99.90
4356;DHT22;2191;51.482;7.408;2022-07-23T12:58:54;26.40;99.90
4356;DHT22;2191;51.482;7.408;2022-07-23T13:01:30;26.20;99.90
4356;DHT22;2191;51.482;7.408;2022-07-23T13:04:22;26.50;99.90
4356;DHT22;2191;51.482;7.408;2022-07-23T13:06:53;26.30;99.90
4356;DHT22;2191;51.482;7.408;2022-07-23T13:09:22;26.30;99.90
4356;DHT22;2191;51.482;7.408;2022-07-23T13:12:03;26.60;99.90
4356;DHT22;2191;51.482;7.408;2022-07-23T13:14:33;26.80;99.90
4356;DHT22;2191;51.482;7.408;2022-07-23T13:17:04;27.00;99.90
4356;DHT22;2191;51.482;7.408;2022-07-23T13:19:41;26.90;99.90
4356;DHT22;2191;51.482;7.408;2022-07-23T13:22:15;27.00;99.90
4356;DHT22;2191;51.482;7.408;2022-07-23T13:24:43;27.20;99.90
4356;DHT22;2191;51.482;7.408;2022-07-23T13:27:12;27.10;99.90
4356;DHT22;2191;51.482;7.408;2022-07-23T13:29:46;27.40;99.90
4356;DHT22;2191;51.482;7.408;2022-07-23T13:32:14;27.50;99.90
4356;DHT22;2191;51.482;7.408;2022-07-23T13:34:41;27.60;99.90
4356;DHT22;2191;51.482;7.408;2022-07-23T13:37:10;27.60;99.90
4356;DHT22;2191;51.482;7.408;2022-07-23T13:39:39;27.00;99.90
4356;DHT22;2191;51.482;7.408;2022-07-23T13:42:08;26.90;99.90
4356;DHT22;2191;51.482;7.408;2022-07-23T13:44:46;26.60;99.90
4356;DHT22;2191;51.482;7.408;2022-07-23T13:47:14;26.70;99.90
4356;DHT22;2191;51.482;7.408;2022-07-23T13:49:42;26.60;99.90
4356;DHT22;2191;51.482;7.408;2022-07-23T13:52:14;27.00;99.90
4356;DHT22;2191;51.482;7.408;2022-07-23T13:54:45;27.30;99.90
4356;DHT22;2191;51.482;7.408;2022-07-23T13:57:15;27.40;99.90
4356;DHT22;2191;51.482;7.408;2022-07-23T13:59:47;27.60;99.90
4356;DHT22;2191;51.482;7.408;2022-07-23T14:02:18;27.80;99.90
4356;DHT22;2191;51.482;7.408;2022-07-23T14:04:54;27.50;99.90
4356;DHT22;2191;51.482;7.408;2022-07-23T14:07:23;27.50;99.90
4356;DHT22;2191;51.482;7.408;2022-07-23T14:09:53;27.50;99.90
4356;DHT22;2191;51.482;7.408;2022-07-23T14:12:21;27.40;99.90
4356;DHT22;2191;51.482;7.408;2022-07-23T14:15:00;27.50;99.90
4356;DHT22;2191;51.482;7.408;2022-07-23T14:17:29;27.50;99.90
4356;DHT22;2191;51.482;7.408;2022-07-23T14:19:58;27.60;99.90
4356;DHT22;2191;51.482;7.408;2022-07-23T14:22:27;27.50;99.90
4356;DHT22;2191;51.482;7.408;2022-07-23T14:24:57;27.70;99.90
4356;DHT22;2191;51.482;7.408;2022-07-23T14:27:31;27.80;99.90
4356;DHT22;2191;51.482;7.408;2022-07-23T14:30:05;27.60;99.90
4356;DHT22;2191;51.482;7.408;2022-07-23T14:32:37;27.80;99.90
4356;DHT22;2191;51.482;7.408;2022-07-23T14:35:06;27.60;99.90
4356;DHT22;2191;51.482;7.408;2022-07-23T14:37:43;27.40;99.90
4356;DHT22;2191;51.482;7.408;2022-07-23T14:40:13;27.50;99.90
4356;DHT22;2191;51.482;7.408;2022-07-23T14:42:43;27.50;99.90
4356;DHT22;2191;51.482;7.408;2022-07-23T14:45:13;27.80;99.90
4356;DHT22;2191;51.482;7.408;2022-07-23T14:47:46;27.80;99.90
4356;DHT22;2191;51.482;7.408;2022-07-23T14:50:16;28.00;99.90
4356;DHT22;2191;51.482;7.408;2022-07-23T14:52:44;28.00;99.90
4356;DHT22;2191;51.482;7.408;2022-07-23T14:55:24;27.80;99.90
4356;DHT22;2191;51.482;7.408;2022-07-23T14:57:52;27.70;99.90
4356;DHT22;2191;51.482;7.408;2022-07-23T15:00:21;28.00;99.90
4356;DHT22;2191;51.482;7.408;2022-07-23T15:02:49;27.50;99.90
4356;DHT22;2191;51.482;7.408;2022-07-23T15:05:22;27.50;99.90
4356;DHT22;2191;51.482;7.408;2022-07-23T15:07:52;27.60;99.90
4356;DHT22;2191;51.482;7.408;2022-07-23T15:10:23;27.60;99.90
4356;DHT22;2191;51.482;7.408;2022-07-23T15:12:51;27.70;99.90
4356;DHT22;2191;51.482;7.408;2022-07-23T15:15:21;27.60;99.90
4356;DHT22;2191;51.482;7.408;2022-07-23T15:18:06;27.80;99.90
4356;DHT22;2191;51.482;7.408;2022-07-23T15:20:34;27.90;99.90
4356;DHT22;2191;51.482;7.408;2022-07-23T15:23:07;27.80;99.90
4356;DHT22;2191;51.482;7.408;2022-07-23T15:25:42;28.00;99.90
4356;DHT22;2191;51.482;7.408;2022-07-23T15:28:16;27.90;99.90
4356;DHT22;2191;51.482;7.408;2022-07-23T15:30:49;28.00;99.90
4356;DHT22;2191;51.482;7.408;2022-07-23T15:33:20;28.10;99.90
4356;DHT22;2191;51.482;7.408;2022-07-23T15:35:51;28.10;99.90
4356;DHT22;2191;51.482;7.408;2022-07-23T15:38:24;28.20;99.90
4356;DHT22;2191;51.482;7.408;2022-07-23T15:40:57;28.10;99.90
4356;DHT22;2191;51.482;7.408;2022-07-23T15:43:25;28.00;99.90
4356;DHT22;2191;51.482;7.408;2022-07-23T15:45:54;28.10;99.90
4356;DHT22;2191;51.482;7.408;2022-07-23T15:48:26;28.00;99.90
4356;DHT22;2191;51.482;7.408;2022-07-23T15:50:55;28.20;99.90
4356;DHT22;2191;51.482;7.408;2022-07-23T15:53:25;27.80;99.90
4356;DHT22;2191;51.482;7.408;2022-07-23T15:56:06;27.90;99.90
4356;DHT22;2191;51.482;7.408;2022-07-23T15:58:42;27.90;99.90
4356;DHT22;2191;51.482;7.408;2022-07-23T16:01:15;27.70;99.90
4356;DHT22;2191;51.482;7.408;2022-07-23T16:03:45;27.70;99.90
4356;DHT22;2191;51.482;7.408;2022-07-23T16:06:13;27.80;99.90
4356;DHT22;2191;51.482;7.408;2022-07-23T16:08:45;27.80;99.90
4356;DHT22;2191;51.482;7.408;2022-07-23T16:11:33;27.90;99.90
4356;DHT22;2191;51.482;7.408;2022-07-23T16:14:03;27.60;99.90
4356;DHT22;2191;51.482;7.408;2022-07-23T16:16:32;27.80;99.90
4356;DHT22;2191;51.482;7.408;2022-07-23T16:19:03;27.90;99.90
4356;DHT22;2191;51.482;7.408;2022-07-23T16:21:35;28.00;99.90
4356;DHT22;2191;51.482;7.408;2022-07-23T16:24:06;27.90;99.90
4356;DHT22;2191;51.482;7.408;2022-07-23T16:26:34;27.50;99.90
4356;DHT22;2191;51.482;7.408;2022-07-23T16:29:02;27.70;99.90
4356;DHT22;2191;51.482;7.408;2022-07-23T16:31:35;27.80;99.90
4356;DHT22;2191;51.482;7.408;2022-07-23T16:34:03;27.80;99.90